• Join FlightAware (Why Join?)
  • Login
  • US Flag 
10:46PM EDT


 

Airport Tracker/Info


-or-


 

Live Flight TrackerFlight Track Log ✈ N440FX ✈ 13-May-2012 ✈ KLEB - KHPN

Flight Track Log - Related Links

Times and Time Zones

All times are in EDT time to prevent confusion due to time zone crossing. See the N440FX flight status page for this flight to view local times or setup timezone preferences in your user account.

Time Position Orientation Groundspeed Altitude Reporting Facility
EDT Latitude Longitude Course Direction KTS MPH feet Rate Location/Type
01:11PM 43.5425 -72.4600 231° Southwest 399 459 8,600  Level Boston Center
01:12PM 43.5008 -72.5317 230° Southwest 303 349 12,200 3,060 Climbing Boston Center
01:13PM 43.4464 -72.6203 230° Southwest 291 335 14,800 1,800 Climbing Boston Center
01:14PM 43.3794 -72.7286 230° Southwest 334 384 15,800 540 Climbing Boston Center
01:15PM 43.3125 -72.8394 230° Southwest 367 422 15,900  Climbing Boston Center
01:16PM 43.2453 -72.9503 228° Southwest 379 436 15,900  Level Boston Center
01:17PM 43.1678 -73.0664 229° Southwest 379 436 15,900  Level Boston Center
01:18PM 43.1047 -73.1653 211° Southwest 384 442 16,000  Climbing Boston Center
01:19PM 43.0039 -73.2492 211° Southwest 378 435 16,000  Level Boston Center
01:20PM 42.9244 -73.3133 200° South 384 442 16,000  Level Boston Center
01:21PM 42.8114 -73.3683 204° Southwest 391 450 16,000  Level Boston Center
01:22PM 42.7256 -73.4208 203° Southwest 385 443 16,000  Level Boston Center
01:23PM 42.6186 -73.4811 194° South 380 437 16,000  Level Boston Center
01:24PM 42.5267 -73.5133 196° South 374 430 16,000  Level Boston Center
01:25PM 42.4178 -73.5567 195° South 374 430 16,000 -540 Level Boston Center
01:26PM 42.3133 -73.5942 194° South 379 436 15,000 -1,260 Descending Boston Center
01:27PM 42.2108 -73.6286 194° South 379 436 13,500 -1,440 Descending Boston Center
01:28PM 42.1083 -73.6631 193° South 379 436 12,200 -780 Descending Boston Center
01:29PM 42.0058 -73.6944 195° South 379 436 12,000 -300 Descending Boston Center
01:30PM 41.9033 -73.7317 193° South 379 436 11,600 -780 Descending Boston Center
01:31PM 41.8133 -73.7603 193° South 379 436 10,500 -840 Descending Boston Center
01:32PM 41.7044 -73.7942 196° South 379 436 10,000 -960 Descending Boston Center
01:33PM 41.6000 -73.8333 189° South 279 321 8,300 -1,440 Descending New York TRACON
01:34PM 41.5167 -73.8500 191° South 270 311 6,700 -1,800 Descending New York TRACON
01:35PM 41.4500 -73.8667 180° South 267 307 4,800 -1,740 Descending New York TRACON
01:36PM 41.3833 -73.8667 191° South 255 293 3,400 -960 Descending New York TRACON
01:37PM 41.3167 -73.8833 159° South 218 251 3,000 -240 Descending New York TRACON
01:38PM 41.2500 -73.8500 153° Southeast 244 281 3,000  Level New York TRACON
01:39PM 41.2000 -73.8167 153° Southeast 225 259 3,000 -300 Level New York TRACON
01:40PM 41.1500 -73.7833 143° Southeast 181 208 2,400 -780 Descending New York TRACON
01:41PM 41.1167 -73.7500 143° Southeast 157 181 1,500 -900 Descending New York TRACON
01:42PM 41.0833 -73.7167 323° Northwest 134 154 700 -840 Descending New York TRACON
01:49PM 41.6495 -74.2888 323° Northwest  Level FlightAware Approximate